Time;durP1;ratioP1;P1;durP2;ratioP2;P2;SDS_P1;SDS_P2;PMS_P1;PMS_P2;Temp;Humidity;BMP_temperature;BMP_pressure;BME280_temperature;BME280_humidity;BME280_pressure;Samples;Min_cycle;Max_cycle;Signal;HPM_P1;HPM_P2
2021/12/28 00:01:15;;;;;;;4.13;1.52;;;8.70;82.70;;;;;;7360591;19;20127;-36
2021/12/28 00:03:47;;;;;;;2.65;1.13;;;8.80;82.60;;;;;;7371274;19;20146;-36
2021/12/28 00:06:24;;;;;;;5.72;1.67;;;8.70;82.50;;;;;;7362458;19;20290;-36
2021/12/28 00:08:54;;;;;;;2.45;0.95;;;8.70;82.70;;;;;;7368450;19;20530;-37
2021/12/28 00:11:23;;;;;;;2.65;1.05;;;8.70;82.60;;;;;;7352937;19;20232;-36
2021/12/28 00:14:00;;;;;;;3.38;0.90;;;8.70;82.30;;;;;;7365731;19;20195;-35
2021/12/28 00:17:58;;;;;;;2.67;1.00;;;8.80;82.00;;;;;;7369447;19;20211;-35
2021/12/28 00:19:24;;;;;;;5.15;1.55;;;8.80;81.80;;;;;;7365216;19;20146;-35
2021/12/28 00:21:56;;;;;;;4.65;1.80;;;8.80;81.70;;;;;;7363226;19;20147;-35
2021/12/28 00:24:26;;;;;;;4.15;0.80;;;8.80;81.60;;;;;;7370407;19;21169;-35
2021/12/28 00:26:56;;;;;;;4.18;1.77;;;8.80;81.10;;;;;;7365985;19;20610;-36
2021/12/28 00:29:28;;;;;;;3.70;1.30;;;8.80;81.30;;;;;;7369679;19;20199;-37
2021/12/28 00:31:59;;;;;;;4.25;1.45;;;8.80;81.00;;;;;;7361213;19;20139;-36
2021/12/28 00:34:31;;;;;;;4.03;1.10;;;8.80;81.30;;;;;;7369818;19;20139;-38
2021/12/28 00:37:03;;;;;;;5.25;1.00;;;8.80;81.00;;;;;;7361877;19;20195;-37
2021/12/28 00:39:33;;;;;;;3.88;1.10;;;8.90;80.80;;;;;;7364983;19;20131;-38
2021/12/28 00:42:02;;;;;;;3.53;1.20;;;8.80;80.60;;;;;;7360260;19;20124;-37
2021/12/28 00:44:32;;;;;;;5.95;1.15;;;8.80;80.80;;;;;;7374484;19;20675;-38
2021/12/28 00:47:01;;;;;;;2.78;0.98;;;8.70;81.10;;;;;;7370784;19;20128;-37
2021/12/28 00:49:31;;;;;;;4.13;1.70;;;8.80;81.00;;;;;;7377734;19;20617;-37
2021/12/28 00:52:03;;;;;;;1.70;1.15;;;8.60;80.90;;;;;;7363627;19;20131;-38
2021/12/28 00:54:33;;;;;;;14.68;1.67;;;8.70;81.00;;;;;;7367968;19;20898;-37
2021/12/28 00:57:02;;;;;;;4.25;1.45;;;8.60;81.30;;;;;;7376689;19;20652;-38
2021/12/28 00:59:36;;;;;;;7.60;1.63;;;8.50;81.10;;;;;;7374751;19;20135;-37
2021/12/28 01:02:08;;;;;;;6.72;1.20;;;8.50;81.00;;;;;;7370212;19;20607;-37
2021/12/28 01:04:38;;;;;;;4.55;1.48;;;8.50;81.00;;;;;;7374726;19;20120;-38
2021/12/28 01:07:10;;;;;;;9.48;2.38;;;8.50;81.00;;;;;;7368225;19;20569;-38
2021/12/28 01:09:42;;;;;;;6.57;1.00;;;8.50;81.00;;;;;;7371858;19;20877;-38
2021/12/28 01:12:12;;;;;;;4.28;1.33;;;8.50;80.70;;;;;;7363630;19;20155;-38
2021/12/28 01:14:42;;;;;;;7.38;1.58;;;8.60;80.40;;;;;;7371850;19;20602;-38
2021/12/28 01:17:12;;;;;;;4.68;1.50;;;8.60;80.50;;;;;;7374576;19;20127;-38
2021/12/28 01:19:43;;;;;;;2.00;0.90;;;8.60;80.40;;;;;;7372362;19;20159;-38
2021/12/28 01:22:15;;;;;;;3.90;1.58;;;8.60;80.30;;;;;;7371471;19;20478;-37
2021/12/28 01:24:45;;;;;;;6.20;1.67;;;8.50;80.90;;;;;;7372310;19;20128;-38
2021/12/28 01:27:15;;;;;;;5.88;1.33;;;8.40;81.50;;;;;;7381510;19;20124;-38
2021/12/28 01:29:44;;;;;;;9.85;1.80;;;8.30;81.70;;;;;;7375733;19;20136;-37
2021/12/28 01:32:14;;;;;;;3.60;1.25;;;8.30;81.80;;;;;;7368540;19;20139;-37
2021/12/28 01:34:44;;;;;;;5.78;1.85;;;8.30;82.10;;;;;;7371062;19;20736;-38
2021/12/28 01:37:16;;;;;;;5.65;1.33;;;8.30;82.30;;;;;;7371240;19;20148;-38
2021/12/28 01:39:46;;;;;;;5.28;1.58;;;8.30;82.30;;;;;;7372024;19;20128;-38
2021/12/28 01:42:15;;;;;;;7.45;1.30;;;8.30;82.30;;;;;;7372128;19;20760;-37
2021/12/28 01:44:45;;;;;;;7.40;1.90;;;8.30;81.80;;;;;;7374896;19;20235;-37
2021/12/28 01:47:16;;;;;;;3.15;1.15;;;8.30;81.90;;;;;;7372058;19;20711;-37
2021/12/28 01:49:46;;;;;;;7.78;2.20;;;8.30;82.60;;;;;;7370092;19;20135;-37
2021/12/28 01:52:18;;;;;;;3.53;1.10;;;8.40;81.50;;;;;;7373849;19;20500;-38
2021/12/28 01:54:47;;;;;;;2.53;1.05;;;8.40;81.50;;;;;;7362474;19;20132;-38
2021/12/28 01:57:21;;;;;;;2.58;1.00;;;8.40;81.20;;;;;;7379936;19;20132;-37
2021/12/28 01:59:52;;;;;;;8.77;1.55;;;8.30;81.80;;;;;;7377225;19;20128;-37
2021/12/28 02:02:21;;;;;;;4.97;1.27;;;8.20;82.00;;;;;;7371902;19;20199;-39
2021/12/28 02:04:53;;;;;;;1.90;1.30;;;8.10;82.10;;;;;;7366411;19;20598;-38
2021/12/28 02:07:25;;;;;;;3.65;1.23;;;8.00;82.50;;;;;;7368745;19;20490;-38
2021/12/28 02:09:54;;;;;;;4.13;1.90;;;8.00;82.60;;;;;;7373768;19;20139;-37
2021/12/28 02:12:24;;;;;;;6.82;2.30;;;8.10;82.90;;;;;;7363153;19;20471;-36
2021/12/28 02:14:53;;;;;;;7.97;4.78;;;8.20;82.50;;;;;;7369747;19;20128;-37
2021/12/28 02:17:23;;;;;;;6.20;2.55;;;8.10;82.00;;;;;;7366868;19;20493;-37
2021/12/28 02:19:58;;;;;;;2.60;1.40;;;8.10;81.60;;;;;;7365693;19;20174;-38
2021/12/28 02:22:30;;;;;;;4.78;2.33;;;8.20;81.30;;;;;;7372506;19;20621;-38
2021/12/28 02:25:00;;;;;;;5.90;1.80;;;8.20;81.00;;;;;;7368991;19;20128;-37
2021/12/28 02:27:30;;;;;;;4.38;1.25;;;8.20;81.20;;;;;;7376403;19;20136;-37
2021/12/28 02:30:00;;;;;;;3.75;1.35;;;8.10;80.60;;;;;;7368271;19;20128;-38
2021/12/28 02:32:32;;;;;;;4.63;1.45;;;8.30;80.50;;;;;;7371875;19;20143;-37
2021/12/28 02:35:04;;;;;;;5.78;1.42;;;8.30;80.40;;;;;;7371948;19;20618;-38
2021/12/28 02:37:39;;;;;;;6.57;1.60;;;8.30;80.20;;;;;;7368041;19;20135;-38
2021/12/28 02:40:11;;;;;;;2.47;1.92;;;8.30;80.30;;;;;;7369751;19;20139;-37
2021/12/28 02:42:41;;;;;;;9.32;1.55;;;8.40;80.20;;;;;;7373084;19;20135;-38
2021/12/28 02:45:14;;;;;;;6.30;1.73;;;8.30;80.50;;;;;;7369539;19;20149;-37
2021/12/28 02:47:46;;;;;;;3.83;1.67;;;8.30;80.10;;;;;;7367680;19;20139;-38
2021/12/28 02:50:21;;;;;;;4.82;1.65;;;8.20;80.30;;;;;;7369209;19;20466;-37
2021/12/28 02:52:53;;;;;;;2.08;1.02;;;8.20;81.20;;;;;;7365294;19;20606;-37
2021/12/28 02:55:27;;;;;;;5.75;1.35;;;8.30;80.10;;;;;;7362564;19;20135;-37
2021/12/28 02:58:00;;;;;;;5.15;1.63;;;8.20;80.10;;;;;;7370730;19;20164;-37
2021/12/28 03:00:40;;;;;;;7.53;1.20;;;8.20;80.30;;;;;;7373854;19;20598;-37
2021/12/28 03:03:12;;;;;;;8.82;2.05;;;8.20;80.20;;;;;;7374374;19;20135;-37
2021/12/28 03:05:44;;;;;;;4.25;1.55;;;8.10;80.10;;;;;;7365394;19;20150;-38
2021/12/28 03:08:17;;;;;;;3.97;1.40;;;8.10;80.10;;;;;;7367425;19;20657;-37
2021/12/28 03:10:48;;;;;;;3.63;1.60;;;8.10;80.30;;;;;;7365917;19;20174;-37
2021/12/28 03:13:20;;;;;;;5.28;1.48;;;8.00;80.40;;;;;;7372591;19;20139;-37
2021/12/28 03:15:49;;;;;;;5.60;1.67;;;8.10;80.80;;;;;;7374711;19;20131;-37
2021/12/28 03:18:19;;;;;;;5.60;1.65;;;8.10;80.30;;;;;;7372370;19;20123;-36
2021/12/28 03:20:48;;;;;;;5.93;1.83;;;8.20;80.20;;;;;;7371555;19;20519;-37
2021/12/28 03:23:23;;;;;;;8.77;1.75;;;8.20;80.30;;;;;;7370592;19;20138;-37
2021/12/28 03:25:53;;;;;;;5.07;1.80;;;8.20;79.20;;;;;;7370679;19;20138;-37
2021/12/28 03:28:27;;;;;;;2.80;1.50;;;8.30;79.30;;;;;;7370783;19;20131;-37
2021/12/28 03:31:00;;;;;;;7.70;1.95;;;8.20;79.10;;;;;;7369792;19;20135;-37
2021/12/28 03:33:32;;;;;;;5.43;1.80;;;8.30;79.70;;;;;;7374880;19;20179;-38
2021/12/28 03:36:02;;;;;;;5.75;2.30;;;8.30;79.20;;;;;;7365663;19;20147;-37
2021/12/28 03:38:34;;;;;;;4.13;1.30;;;8.40;78.40;;;;;;7365119;19;20139;-37
2021/12/28 03:41:08;;;;;;;3.90;1.35;;;8.40;78.90;;;;;;7365187;19;20131;-37
2021/12/28 03:43:42;;;;;;;6.70;2.03;;;8.50;78.90;;;;;;7371189;19;20616;-37
2021/12/28 03:46:12;;;;;;;11.48;2.58;;;8.60;78.80;;;;;;7361249;19;20140;-38
2021/12/28 03:48:42;;;;;;;4.15;1.85;;;8.50;78.00;;;;;;7362442;19;20191;-37
2021/12/28 03:51:13;;;;;;;5.28;1.30;;;8.50;77.60;;;;;;7368834;19;20496;-37
2021/12/28 03:53:46;;;;;;;3.90;1.40;;;8.50;78.00;;;;;;7364337;19;20196;-37
2021/12/28 03:56:17;;;;;;;2.63;1.77;;;8.50;77.50;;;;;;7361541;19;20135;-37
2021/12/28 03:58:47;;;;;;;1.77;1.10;;;8.50;77.70;;;;;;7364344;19;20136;-38
2021/12/28 04:01:19;;;;;;;6.10;1.52;;;8.50;77.00;;;;;;7364703;19;20138;-38
2021/12/28 04:03:51;;;;;;;7.70;2.50;;;8.50;77.40;;;;;;7365947;19;20477;-38
2021/12/28 04:06:21;;;;;;;5.30;1.70;;;8.50;77.50;;;;;;7363911;19;20131;-38
2021/12/28 04:08:56;;;;;;;3.38;1.05;;;8.50;77.30;;;;;;7368952;19;20149;-38
2021/12/28 04:11:29;;;;;;;3.63;1.27;;;8.60;77.50;;;;;;7359074;19;20657;-37
2021/12/28 04:14:02;;;;;;;5.47;1.35;;;8.50;77.00;;;;;;7368205;19;20135;-38
2021/12/28 04:16:34;;;;;;;5.90;1.35;;;8.60;77.40;;;;;;7365370;19;20131;-38
2021/12/28 04:19:06;;;;;;;7.70;1.30;;;8.60;76.80;;;;;;7374420;19;20135;-38
2021/12/28 04:21:37;;;;;;;2.95;1.33;;;9.00;77.50;;;;;;7376169;19;20155;-37
2021/12/28 04:24:09;;;;;;;10.30;3.03;;;8.60;77.10;;;;;;7372742;19;20142;-37
2021/12/28 04:26:39;;;;;;;5.22;1.25;;;8.60;77.10;;;;;;7371927;19;20143;-37
2021/12/28 04:29:08;;;;;;;3.03;1.27;;;8.60;77.10;;;;;;7376112;19;20132;-37
2021/12/28 04:31:38;;;;;;;3.30;1.60;;;8.60;76.90;;;;;;7371673;19;20128;-37
2021/12/28 04:34:08;;;;;;;3.63;1.38;;;8.60;76.70;;;;;;7377844;19;20525;-37
2021/12/28 04:36:37;;;;;;;2.50;1.27;;;8.60;77.10;;;;;;7370078;19;20181;-38
2021/12/28 04:39:10;;;;;;;4.60;1.33;;;8.50;77.50;;;;;;7370853;19;20139;-38
2021/12/28 04:41:40;;;;;;;3.75;1.30;;;8.50;78.00;;;;;;7367781;19;20128;-37
2021/12/28 04:44:12;;;;;;;5.00;1.15;;;8.50;78.30;;;;;;7377063;19;20135;-37
2021/12/28 04:46:42;;;;;;;5.00;1.98;;;8.40;79.10;;;;;;7364569;19;20128;-38
2021/12/28 04:49:12;;;;;;;3.05;1.33;;;8.30;79.60;;;;;;7371098;19;20136;-37
2021/12/28 04:51:42;;;;;;;1.77;1.08;;;8.30;80.50;;;;;;7376573;19;20155;-37
2021/12/28 04:54:14;;;;;;;6.88;1.48;;;8.40;80.50;;;;;;7359237;19;20136;-37
2021/12/28 04:56:45;;;;;;;2.38;1.30;;;8.30;81.90;;;;;;7361867;19;20614;-37
2021/12/28 04:59:15;;;;;;;3.75;1.23;;;8.30;82.50;;;;;;7375405;19;20590;-37
2021/12/28 05:01:45;;;;;;;3.63;1.55;;;8.40;83.30;;;;;;7372670;19;20808;-37
2021/12/28 05:04:17;;;;;;;6.65;1.67;;;8.30;82.00;;;;;;7370653;19;20127;-37
2021/12/28 05:06:49;;;;;;;4.65;1.35;;;8.30;81.90;;;;;;7372377;19;20598;-37
2021/12/28 05:09:21;;;;;;;2.65;1.10;;;8.20;83.50;;;;;;7374121;19;20135;-37
2021/12/28 05:11:51;;;;;;;4.93;1.50;;;8.20;83.20;;;;;;7365693;19;20681;-37
2021/12/28 05:14:21;;;;;;;5.93;1.55;;;8.20;82.90;;;;;;7365838;19;20143;-36
2021/12/28 05:16:52;;;;;;;3.30;1.40;;;8.20;83.40;;;;;;7365315;19;20131;-36
2021/12/28 05:19:22;;;;;;;3.85;1.40;;;8.10;83.60;;;;;;7364312;19;20131;-36
2021/12/28 05:21:51;;;;;;;3.13;1.70;;;8.20;83.70;;;;;;7367625;19;20135;-36
2021/12/28 05:24:23;;;;;;;2.15;1.33;;;8.20;83.00;;;;;;7370645;19;20149;-36
2021/12/28 05:26:55;;;;;;;5.95;1.35;;;8.30;82.80;;;;;;7372596;19;20155;-36
2021/12/28 05:29:25;;;;;;;6.00;2.05;;;8.30;82.70;;;;;;7370852;19;20150;-36
2021/12/28 05:31:54;;;;;;;5.30;1.80;;;8.30;83.00;;;;;;7375820;19;20135;-37
2021/12/28 05:34:24;;;;;;;3.05;1.30;;;8.20;83.00;;;;;;7380515;19;20123;-36
2021/12/28 05:36:54;;;;;;;3.38;1.10;;;8.20;83.20;;;;;;7372487;19;20183;-37
2021/12/28 05:39:28;;;;;;;11.93;1.95;;;8.30;83.00;;;;;;7374244;19;20139;-36
2021/12/28 05:41:58;;;;;;;5.03;1.90;;;8.30;83.90;;;;;;7374846;19;20122;-37
2021/12/28 05:44:27;;;;;;;2.08;1.42;;;8.30;83.30;;;;;;7370760;19;20140;-36
2021/12/28 05:46:57;;;;;;;3.58;1.73;;;8.30;83.20;;;;;;7375676;19;20856;-36
2021/12/28 05:49:27;;;;;;;3.88;1.60;;;8.30;83.60;;;;;;7378231;19;20127;-36
2021/12/28 05:51:56;;;;;;;4.45;1.75;;;8.40;83.30;;;;;;7379067;19;20488;-37
2021/12/28 05:54:29;;;;;;;3.30;1.35;;;8.40;83.10;;;;;;7367447;19;20130;-38
2021/12/28 05:56:58;;;;;;;1.60;1.20;;;8.40;82.90;;;;;;7372961;19;20646;-37
2021/12/28 05:59:28;;;;;;;2.33;1.15;;;8.40;83.40;;;;;;7374964;19;20135;-37
2021/12/28 06:01:58;;;;;;;3.63;1.38;;;8.40;83.30;;;;;;7375130;19;20128;-37
2021/12/28 06:04:28;;;;;;;2.05;1.30;;;8.40;83.70;;;;;;7371173;19;20812;-37
2021/12/28 06:06:57;;;;;;;2.20;1.63;;;8.40;83.70;;;;;;7376030;19;20507;-38
2021/12/28 06:09:30;;;;;;;4.63;1.45;;;8.40;84.20;;;;;;7367788;19;20696;-37
2021/12/28 06:11:59;;;;;;;1.05;0.95;;;8.30;85.30;;;;;;7363422;19;20174;-37
2021/12/28 06:14:29;;;;;;;2.00;1.38;;;8.40;85.70;;;;;;7376137;19;20139;-37
2021/12/28 06:16:58;;;;;;;1.45;1.20;;;8.50;84.90;;;;;;7375130;19;20123;-37
2021/12/28 06:19:28;;;;;;;2.70;1.30;;;8.50;84.30;;;;;;7375399;19;20490;-37
2021/12/28 06:21:58;;;;;;;7.35;1.40;;;8.50;84.20;;;;;;7371928;19;20599;-37
2021/12/28 06:24:30;;;;;;;4.28;1.63;;;8.50;85.00;;;;;;7371985;19;21130;-37
2021/12/28 06:26:59;;;;;;;2.65;1.52;;;8.60;84.10;;;;;;7371100;19;20175;-37
2021/12/28 06:29:29;;;;;;;3.28;2.97;;;8.60;84.40;;;;;;7373381;19;20135;-37
2021/12/28 06:31:58;;;;;;;1.67;1.02;;;8.70;84.70;;;;;;7371400;19;20132;-37
2021/12/28 06:34:28;;;;;;;2.15;1.23;;;8.60;84.00;;;;;;7377309;19;20134;-37
2021/12/28 06:36:58;;;;;;;4.15;1.20;;;8.50;83.90;;;;;;7370760;19;20174;-37
2021/12/28 06:39:31;;;;;;;3.58;1.15;;;8.50;83.80;;;;;;7370277;19;20498;-37
2021/12/28 06:42:00;;;;;;;3.20;1.13;;;8.60;83.90;;;;;;7368762;19;20127;-35
2021/12/28 06:44:30;;;;;;;1.15;0.80;;;8.60;83.70;;;;;;7371189;19;20148;-36
2021/12/28 06:47:00;;;;;;;0.70;0.70;;;8.70;83.10;;;;;;7370442;19;20160;-35
2021/12/28 06:49:29;;;;;;;2.65;1.27;;;8.80;83.00;;;;;;7375766;19;20138;-36
2021/12/28 06:51:59;;;;;;;2.45;1.25;;;8.90;82.30;;;;;;7373029;19;20618;-36
2021/12/28 06:54:36;;;;;;;2.40;1.25;;;8.90;81.00;;;;;;7363435;19;20135;-35
2021/12/28 06:57:07;;;;;;;2.78;1.13;;;8.90;81.00;;;;;;7370269;19;20207;-35
2021/12/28 06:59:42;;;;;;;1.58;0.98;;;9.00;81.50;;;;;;7370309;19;20139;-36
2021/12/28 07:02:13;;;;;;;2.83;1.00;;;9.00;81.00;;;;;;7372050;19;21649;-35
2021/12/28 07:04:46;;;;;;;4.25;1.15;;;8.90;80.70;;;;;;7371445;19;20131;-35
2021/12/28 07:07:16;;;;;;;1.23;0.80;;;9.00;80.40;;;;;;7364829;19;20123;-36
2021/12/28 07:09:48;;;;;;;2.75;1.23;;;9.00;80.30;;;;;;7370587;19;20274;-35
2021/12/28 07:12:17;;;;;;;3.72;1.30;;;9.10;80.10;;;;;;7361566;19;20194;-36
2021/12/28 07:14:47;;;;;;;1.35;0.80;;;9.10;79.70;;;;;;7371933;19;20167;-35
2021/12/28 07:17:17;;;;;;;0.50;0.50;;;9.10;79.50;;;;;;7372712;19;21763;-35
2021/12/28 07:19:46;;;;;;;0.73;0.47;;;9.00;79.40;;;;;;7375998;19;20155;-35
2021/12/28 07:22:18;;;;;;;1.30;0.90;;;9.00;79.60;;;;;;7365397;19;20610;-35
2021/12/28 07:24:50;;;;;;;1.02;0.70;;;9.20;78.90;;;;;;7367083;19;20138;-35
2021/12/28 07:27:19;;;;;;;1.10;0.75;;;9.20;78.30;;;;;;7369123;19;20142;-35
2021/12/28 07:29:49;;;;;;;0.50;0.40;;;9.30;78.70;;;;;;7367180;19;20132;-35
2021/12/28 07:32:19;;;;;;;0.43;0.30;;;9.40;78.70;;;;;;7374651;19;20139;-35
2021/12/28 07:34:49;;;;;;;2.28;0.68;;;9.50;77.10;;;;;;7372571;19;20140;-35
2021/12/28 07:37:20;;;;;;;0.70;0.60;;;9.40;77.40;;;;;;7370642;19;20143;-35
2021/12/28 07:39:53;;;;;;;0.80;0.50;;;9.40;77.40;;;;;;7373149;19;20600;-37
2021/12/28 07:42:23;;;;;;;0.90;0.52;;;9.40;77.20;;;;;;7372177;19;20146;-37
2021/12/28 07:44:52;;;;;;;1.80;0.63;;;9.60;77.40;;;;;;7364427;19;20327;-37
2021/12/28 07:47:22;;;;;;;0.50;0.50;;;9.80;76.70;;;;;;7366141;19;20132;-37
2021/12/28 07:49:51;;;;;;;1.85;1.23;;;9.80;76.00;;;;;;7371238;19;20139;-37
2021/12/28 07:52:21;;;;;;;0.50;0.50;;;9.70;76.10;;;;;;7366904;19;20723;-37
2021/12/28 07:54:53;;;;;;;0.73;0.60;;;9.70;76.70;;;;;;7358558;19;20147;-37
2021/12/28 07:57:23;;;;;;;0.60;0.60;;;9.80;76.40;;;;;;7365529;19;20131;-37
2021/12/28 07:59:52;;;;;;;0.50;0.40;;;9.90;76.00;;;;;;7366927;19;20131;-37
2021/12/28 08:02:22;;;;;;;0.85;0.80;;;10.00;74.20;;;;;;7368318;19;20132;-37
2021/12/28 08:04:51;;;;;;;0.40;0.40;;;9.90;75.40;;;;;;7355656;19;20119;-37
2021/12/28 08:07:21;;;;;;;0.50;0.50;;;9.90;75.10;;;;;;7369082;19;20420;-37
2021/12/28 08:09:53;;;;;;;0.85;0.70;;;9.90;75.30;;;;;;7371109;19;20242;-36
2021/12/28 08:12:23;;;;;;;0.80;0.50;;;9.70;76.90;;;;;;7366720;19;20540;-37
2021/12/28 08:14:55;;;;;;;0.45;0.45;;;9.90;78.30;;;;;;7370237;19;20611;-37
2021/12/28 08:17:26;;;;;;;1.67;0.75;;;9.90;77.30;;;;;;7361799;19;20142;-37
2021/12/28 08:19:57;;;;;;;1.20;0.70;;;9.60;82.30;;;;;;7368431;19;20130;-37
2021/12/28 08:22:27;;;;;;;0.85;0.50;;;9.60;81.10;;;;;;7368937;19;20135;-37
2021/12/28 08:24:59;;;;;;;1.10;0.40;;;9.70;80.00;;;;;;7369628;19;20161;-37
2021/12/28 08:27:30;;;;;;;0.30;0.30;;;9.80;79.90;;;;;;7371915;19;20526;-37
2021/12/28 08:29:59;;;;;;;0.52;0.40;;;9.70;80.00;;;;;;7369788;19;20124;-37
2021/12/28 08:32:29;;;;;;;0.63;0.55;;;9.70;79.20;;;;;;7368762;19;20609;-37
2021/12/28 08:34:58;;;;;;;1.00;0.55;;;9.80;79.20;;;;;;7368415;19;20482;-37
2021/12/28 08:37:28;;;;;;;2.05;0.40;;;9.80;79.70;;;;;;7368875;19;20151;-36
2021/12/28 08:40:01;;;;;;;0.38;0.35;;;9.80;79.20;;;;;;7371284;19;20135;-37
2021/12/28 08:42:31;;;;;;;1.50;0.43;;;9.80;78.90;;;;;;7370841;19;20213;-37
2021/12/28 08:45:01;;;;;;;0.50;0.47;;;9.90;78.70;;;;;;7370430;19;20134;-37
2021/12/28 08:47:31;;;;;;;0.35;0.30;;;9.90;78.40;;;;;;7366652;19;20139;-37
2021/12/28 08:50:03;;;;;;;1.25;0.40;;;9.90;78.50;;;;;;7369865;19;20127;-36
2021/12/28 08:52:32;;;;;;;0.30;0.28;;;10.00;76.60;;;;;;7371037;19;20139;-35
2021/12/28 08:55:04;;;;;;;1.13;0.50;;;10.10;75.80;;;;;;7362654;19;20127;-36
2021/12/28 08:57:34;;;;;;;0.50;0.30;;;10.30;75.90;;;;;;7365399;19;20388;-36
2021/12/28 09:00:05;;;;;;;0.40;0.28;;;10.50;75.10;;;;;;7371767;19;20131;-36
2021/12/28 09:02:35;;;;;;;1.15;1.02;;;10.30;74.70;;;;;;7372183;19;20195;-36
2021/12/28 09:05:05;;;;;;;0.55;0.35;;;10.30;75.90;;;;;;7367726;19;20129;-35
2021/12/28 09:07:37;;;;;;;2.20;0.40;;;10.40;75.90;;;;;;7374521;19;20156;-35
2021/12/28 09:10:10;;;;;;;1.05;0.60;;;10.50;75.60;;;;;;7379805;19;20883;-36
2021/12/28 09:12:40;;;;;;;0.50;0.40;;;10.50;74.60;;;;;;7369287;19;20140;-36
2021/12/28 09:15:11;;;;;;;0.82;0.30;;;10.60;75.00;;;;;;7374530;19;20380;-36
2021/12/28 09:17:42;;;;;;;0.80;0.43;;;10.50;75.90;;;;;;7374998;19;20132;-36
2021/12/28 09:20:14;;;;;;;0.90;0.37;;;10.50;75.40;;;;;;7372582;19;20139;-37
2021/12/28 09:22:43;;;;;;;0.50;0.30;;;10.60;75.50;;;;;;7373788;19;20387;-38
2021/12/28 09:25:17;;;;;;;0.37;0.30;;;10.70;75.80;;;;;;7376159;19;20475;-37
2021/12/28 09:27:47;;;;;;;0.80;0.27;;;10.80;74.90;;;;;;7377029;19;20383;-39
2021/12/28 09:30:17;;;;;;;0.40;0.40;;;10.90;74.50;;;;;;7378202;19;20487;-37
2021/12/28 09:32:47;;;;;;;1.73;0.40;;;11.00;74.20;;;;;;7377305;19;20995;-37
2021/12/28 09:35:17;;;;;;;1.53;0.40;;;11.20;73.40;;;;;;7372936;19;20456;-38
2021/12/28 09:37:47;;;;;;;0.63;0.60;;;11.20;73.00;;;;;;7369921;19;20715;-37
2021/12/28 09:40:19;;;;;;;0.30;0.30;;;11.20;73.90;;;;;;7366502;19;20380;-38
2021/12/28 09:42:49;;;;;;;1.57;1.00;;;11.40;73.20;;;;;;7374602;19;20410;-37
2021/12/28 09:45:19;;;;;;;0.53;0.40;;;11.30;73.40;;;;;;7374254;19;20898;-37
2021/12/28 09:47:49;;;;;;;0.40;0.30;;;11.30;73.50;;;;;;7371156;19;20969;-37
2021/12/28 09:50:20;;;;;;;0.30;0.20;;;11.20;74.20;;;;;;7372614;19;20417;-36
2021/12/28 09:52:51;;;;;;;0.50;0.40;;;11.20;73.90;;;;;;7371603;19;20372;-36
2021/12/28 09:55:25;;;;;;;0.50;0.47;;;11.20;74.60;;;;;;7372427;19;20922;-36
2021/12/28 09:57:55;;;;;;;0.77;0.50;;;11.40;74.00;;;;;;7371436;19;20755;-36
2021/12/28 10:00:26;;;;;;;0.40;0.40;;;11.30;74.10;;;;;;7373773;19;20383;-36
2021/12/28 10:02:56;;;;;;;0.70;0.40;;;11.40;74.30;;;;;;7372784;19;20915;-36
2021/12/28 10:05:28;;;;;;;0.43;0.40;;;11.60;73.30;;;;;;7369423;19;20368;-36
2021/12/28 10:07:59;;;;;;;1.97;0.53;;;11.70;73.10;;;;;;7371269;19;20364;-36
2021/12/28 10:10:36;;;;;;;0.57;0.50;;;12.00;72.60;;;;;;7368684;19;20432;-36
2021/12/28 10:13:09;;;;;;;0.43;0.40;;;12.00;72.20;;;;;;7372907;19;20415;-36
2021/12/28 10:15:42;;;;;;;0.30;0.30;;;12.00;71.90;;;;;;7371810;19;21060;-36
2021/12/28 10:18:13;;;;;;;0.73;0.60;;;12.00;72.60;;;;;;7374670;19;20372;-36
2021/12/28 10:20:46;;;;;;;0.30;0.30;;;12.10;72.30;;;;;;7371870;19;20950;-36
2021/12/28 10:23:17;;;;;;;0.40;0.30;;;12.30;72.20;;;;;;7373593;19;20392;-36
2021/12/28 10:25:53;;;;;;;0.40;0.30;;;12.30;71.20;;;;;;7366515;19;20712;-36
2021/12/28 10:28:26;;;;;;;0.80;0.43;;;12.30;71.30;;;;;;7367604;19;21139;-36
2021/12/28 10:30:58;;;;;;;0.70;0.43;;;12.10;72.20;;;;;;7368242;19;21219;-37
2021/12/28 10:33:30;;;;;;;0.77;0.50;;;12.10;72.40;;;;;;7372176;19;20364;-36
2021/12/28 10:36:02;;;;;;;1.00;0.53;;;12.10;72.70;;;;;;7371988;19;20516;-36
2021/12/28 10:38:36;;;;;;;0.43;0.33;;;12.20;72.50;;;;;;7373110;19;20407;-36
2021/12/28 10:41:15;;;;;;;0.53;0.50;;;12.30;72.30;;;;;;7371081;19;20405;-36
2021/12/28 10:43:46;;;;;;;0.73;0.37;;;12.40;72.00;;;;;;7372651;19;20754;-36
2021/12/28 10:46:21;;;;;;;0.60;0.40;;;12.70;72.10;;;;;;7372565;19;21075;-36
2021/12/28 10:48:54;;;;;;;0.60;0.57;;;13.10;70.50;;;;;;7371722;19;20387;-36
2021/12/28 10:51:30;;;;;;;0.30;0.30;;;13.40;69.40;;;;;;7367629;19;20372;-36
2021/12/28 10:54:12;;;;;;;0.40;0.40;;;13.60;68.90;;;;;;7368269;19;20396;-36
2021/12/28 10:56:58;;;;;;;0.93;0.50;;;13.50;68.30;;;;;;7363969;19;20913;-37
2021/12/28 10:59:31;;;;;;;0.40;0.30;;;13.50;68.60;;;;;;7362902;19;20427;-38
2021/12/28 11:02:02;;;;;;;0.40;0.40;;;13.50;68.70;;;;;;7365229;19;20372;-38
2021/12/28 11:04:34;;;;;;;0.40;0.27;;;13.50;69.00;;;;;;7372373;19;21836;-38
2021/12/28 11:07:08;;;;;;;0.77;0.40;;;13.40;68.80;;;;;;7371537;19;20406;-38
2021/12/28 11:09:49;;;;;;;0.60;0.50;;;13.70;68.70;;;;;;7369722;19;20376;-38
2021/12/28 11:12:21;;;;;;;1.03;0.30;;;14.70;66.40;;;;;;7365370;19;20424;-39
2021/12/28 11:14:53;;;;;;;0.40;0.30;;;15.50;62.40;;;;;;7367854;19;20379;-38
2021/12/28 11:17:33;;;;;;;0.40;0.40;;;17.10;59.50;;;;;;7369927;19;20368;-39
2021/12/28 11:20:02;;;;;;;0.33;0.30;;;19.40;55.50;;;;;;7364545;19;20451;-39
2021/12/28 11:22:32;;;;;;;4.67;0.57;;;21.00;50.70;;;;;;7366047;19;20401;-39
2021/12/28 11:25:01;;;;;;;0.97;0.70;;;20.10;51.30;;;;;;7368267;19;20502;-38
2021/12/28 11:27:34;;;;;;;0.70;0.60;;;19.60;51.80;;;;;;7371871;19;20764;-38
2021/12/28 11:30:14;;;;;;;0.60;0.40;;;18.80;52.90;;;;;;7368146;19;22079;-38
2021/12/28 11:32:44;;;;;;;0.40;0.40;;;18.00;54.00;;;;;;7372321;19;20412;-39
2021/12/28 11:35:13;;;;;;;0.80;0.63;;;17.00;55.90;;;;;;7372286;19;20379;-38
2021/12/28 11:37:44;;;;;;;0.67;0.57;;;16.00;58.90;;;;;;7367863;19;20388;-38
2021/12/28 11:40:14;;;;;;;3.73;0.50;;;15.60;59.90;;;;;;7368385;19;20380;-38
2021/12/28 11:42:46;;;;;;;0.57;0.37;;;15.30;61.20;;;;;;7371304;19;20392;-38
2021/12/28 11:45:15;;;;;;;1.20;0.70;;;14.90;62.90;;;;;;7371100;19;20384;-38
2021/12/28 11:47:48;;;;;;;0.30;0.30;;;14.60;64.20;;;;;;7368640;19;20388;-38
2021/12/28 11:50:17;;;;;;;0.53;0.40;;;14.60;64.70;;;;;;7372912;19;21040;-38
2021/12/28 11:52:47;;;;;;;0.73;0.50;;;14.40;65.50;;;;;;7369199;19;20376;-39
2021/12/28 11:55:19;;;;;;;0.53;0.50;;;13.80;67.90;;;;;;7367391;19;20722;-38
2021/12/28 11:57:55;;;;;;;0.70;0.70;;;13.70;68.90;;;;;;7369264;19;20800;-39
2021/12/28 12:00:25;;;;;;;1.13;0.50;;;13.50;69.60;;;;;;7370244;19;20372;-38
2021/12/28 12:02:57;;;;;;;0.40;0.40;;;13.40;70.40;;;;;;7370845;19;20380;-38
2021/12/28 12:05:28;;;;;;;0.97;0.30;;;13.20;71.00;;;;;;7371664;19;20404;-38
2021/12/28 12:08:10;;;;;;;0.50;0.40;;;13.20;71.30;;;;;;7363567;19;20469;-38
2021/12/28 12:10:41;;;;;;;0.50;0.40;;;13.30;71.40;;;;;;7362277;19;20433;-39
2021/12/28 12:13:23;;;;;;;0.60;0.43;;;13.20;71.60;;;;;;7368374;19;20368;-39
2021/12/28 12:15:56;;;;;;;0.50;0.50;;;13.20;72.50;;;;;;7366236;19;20379;-38
2021/12/28 12:18:30;;;;;;;0.30;0.20;;;13.10;73.80;;;;;;7365786;19;20467;-38
2021/12/28 12:21:05;;;;;;;0.40;0.40;;;13.10;74.10;;;;;;7368205;19;20717;-38
2021/12/28 12:23:45;;;;;;;1.77;0.43;;;13.10;74.30;;;;;;7369760;19;21077;-38
2021/12/28 12:26:23;;;;;;;0.50;0.40;;;13.00;75.10;;;;;;7371562;19;20422;-38
2021/12/28 12:28:57;;;;;;;0.43;0.43;;;12.80;76.30;;;;;;7367768;19;20384;-38
2021/12/28 12:31:30;;;;;;;0.70;0.70;;;12.70;77.80;;;;;;7368739;19;20365;-38
2021/12/28 12:34:00;;;;;;;0.87;0.77;;;12.70;77.60;;;;;;7359156;19;20384;-38
2021/12/28 12:36:41;;;;;;;0.50;0.43;;;12.80;78.60;;;;;;7368271;19;20389;-38
2021/12/28 12:39:14;;;;;;;0.90;0.57;;;12.80;78.30;;;;;;7372492;19;20781;-38
2021/12/28 12:41:48;;;;;;;0.80;0.60;;;12.80;77.70;;;;;;7377873;19;20894;-38
2021/12/28 12:44:24;;;;;;;2.20;0.97;;;12.70;78.00;;;;;;7378598;19;20914;-38
2021/12/28 12:46:55;;;;;;;1.00;0.80;;;12.80;78.00;;;;;;7375274;19;20375;-38
2021/12/28 12:49:30;;;;;;;1.03;0.70;;;12.90;77.60;;;;;;7368509;19;20376;-38
2021/12/28 12:52:03;;;;;;;1.53;0.90;;;12.70;77.50;;;;;;7367111;19;20371;-39
2021/12/28 12:54:42;;;;;;;1.07;0.70;;;12.50;78.20;;;;;;7363165;19;20388;-38
2021/12/28 12:57:15;;;;;;;0.83;0.70;;;12.40;78.80;;;;;;7367783;19;20378;-38
2021/12/28 12:59:54;;;;;;;0.73;0.73;;;12.50;79.30;;;;;;7372346;19;20387;-36
2021/12/28 13:02:31;;;;;;;0.97;0.70;;;12.60;78.90;;;;;;7374708;19;20383;-36
2021/12/28 13:05:02;;;;;;;1.17;0.70;;;12.70;77.50;;;;;;7376617;19;23067;-36
2021/12/28 13:07:36;;;;;;;1.13;1.00;;;12.70;77.10;;;;;;7376442;19;20364;-36
2021/12/28 13:10:13;;;;;;;1.43;0.70;;;12.80;76.60;;;;;;7373565;19;20387;-36
2021/12/28 13:12:45;;;;;;;0.47;0.40;;;12.70;76.40;;;;;;7373317;19;20381;-36
2021/12/28 13:15:19;;;;;;;0.50;0.50;;;12.70;76.60;;;;;;7368618;19;20408;-36